createdAt,value
2023-03-27T00:01:32.007Z,16.01
2023-03-27T00:06:37.316Z,15.98
2023-03-27T00:11:40.971Z,16.20
2023-03-27T00:16:44.631Z,16.66
2023-03-27T00:21:49.944Z,16.45
2023-03-27T00:26:55.725Z,16.41
2023-03-27T00:31:59.343Z,16.20
2023-03-27T00:37:04.662Z,16.32
2023-03-27T00:42:13.855Z,16.16
2023-03-27T00:47:19.244Z,15.79
2023-03-27T00:52:24.703Z,15.46
2023-03-27T00:57:28.402Z,15.19
2023-03-27T01:02:32.218Z,15.24
2023-03-27T01:07:40.689Z,15.22
2023-03-27T01:13:17.965Z,14.91
2023-03-27T01:18:34.107Z,15.08
2023-03-27T01:24:03.531Z,15.02
2023-03-27T01:29:15.397Z,14.88
2023-03-27T01:35:04.586Z,14.71
2023-03-27T01:40:15.660Z,14.67
2023-03-27T01:45:21.289Z,14.59
2023-03-27T01:50:30.548Z,14.03
2023-03-27T01:55:39.972Z,13.06
2023-03-27T02:00:51.460Z,12.41
2023-03-27T02:06:01.329Z,12.29
2023-03-27T02:11:07.186Z,12.25
2023-03-27T02:16:15.684Z,11.93
2023-03-27T02:21:19.451Z,11.77
2023-03-27T02:26:25.003Z,11.75
2023-03-27T02:31:44.782Z,11.62
2023-03-27T02:36:58.308Z,11.47
2023-03-27T02:42:09.952Z,11.26
2023-03-27T02:47:20.277Z,10.95
2023-03-27T02:52:29.218Z,10.93
2023-03-27T02:57:37.813Z,10.89
2023-03-27T03:02:41.999Z,10.73
2023-03-27T03:07:45.923Z,10.70
2023-03-27T03:12:51.265Z,10.61
2023-03-27T03:17:55.219Z,10.52
2023-03-27T03:22:58.938Z,10.58
2023-03-27T03:28:07.218Z,10.45
2023-03-27T03:33:10.890Z,10.21
2023-03-27T03:38:14.584Z,10.26
2023-03-27T03:43:20.018Z,10.31
2023-03-27T03:48:24.103Z,10.17
2023-03-27T03:53:27.826Z,10.15
2023-03-27T03:58:34.642Z,10.08
2023-03-27T04:03:39.147Z,10.15
2023-03-27T04:08:42.910Z,10.10
2023-03-27T04:13:48.302Z,10.13
2023-03-27T04:18:52.079Z,10.11
2023-03-27T04:23:55.875Z,10.05
2023-03-27T04:29:01.236Z,10.01
2023-03-27T04:34:04.908Z,9.92
2023-03-27T04:39:08.537Z,9.87
2023-03-27T04:44:13.890Z,9.87
2023-03-27T04:49:17.810Z,9.80
2023-03-27T04:54:21.450Z,9.78
2023-03-27T04:59:26.776Z,9.77
2023-03-27T05:04:31.362Z,9.73
2023-03-27T05:09:35.050Z,9.66
2023-03-27T05:14:40.356Z,9.62
2023-03-27T05:19:44.083Z,9.46
2023-03-27T05:24:47.779Z,9.21
2023-03-27T05:29:53.087Z,8.89
2023-03-27T05:34:56.742Z,8.77
2023-03-27T05:40:00.429Z,8.71
2023-03-27T05:45:06.395Z,8.59
2023-03-27T05:50:10.935Z,8.39
2023-03-27T05:55:15.228Z,8.32
2023-03-27T06:00:21.361Z,8.23
2023-03-27T06:05:25.750Z,8.13
2023-03-27T06:10:31.145Z,8.10
2023-03-27T06:15:39.786Z,8.04
2023-03-27T06:20:43.455Z,7.80
2023-03-27T06:25:47.097Z,7.61
2023-03-27T06:30:52.597Z,7.45
2023-03-27T06:35:56.549Z,7.28
2023-03-27T06:41:00.427Z,7.27
2023-03-27T06:46:07.451Z,7.09
2023-03-27T06:51:11.166Z,6.95
2023-03-27T06:56:14.824Z,6.89
2023-03-27T07:01:20.186Z,6.82
2023-03-27T07:06:23.833Z,6.71
2023-03-27T07:11:28.929Z,6.78
2023-03-27T07:16:35.404Z,6.49
2023-03-27T07:21:39.056Z,6.43
2023-03-27T07:26:42.688Z,6.36
2023-03-27T07:31:57.404Z,6.14
2023-03-27T07:37:02.522Z,6.12
2023-03-27T07:42:06.354Z,6.06
2023-03-27T07:47:11.646Z,6.06
2023-03-27T07:52:16.391Z,5.99
2023-03-27T07:57:20.374Z,5.92
2023-03-27T08:02:25.788Z,5.92
2023-03-27T08:07:29.439Z,5.79
2023-03-27T08:12:33.672Z,5.63
2023-03-27T08:17:39.777Z,5.60
2023-03-27T08:22:43.597Z,5.59
2023-03-27T08:27:47.247Z,5.40
2023-03-27T08:32:52.929Z,5.40
2023-03-27T08:37:56.596Z,5.19
2023-03-27T08:43:07.348Z,5.31
2023-03-27T08:48:20.425Z,5.18
2023-03-27T08:53:34.869Z,5.22
2023-03-27T08:58:38.548Z,5.14
2023-03-27T09:03:49.728Z,4.96
2023-03-27T09:09:01.553Z,5.01
2023-03-27T09:14:13.288Z,4.84
2023-03-27T09:19:26.867Z,4.67
2023-03-27T09:24:33.179Z,4.66
2023-03-27T09:29:41.731Z,4.74
2023-03-27T09:34:47.033Z,4.63
2023-03-27T09:39:53.052Z,4.57
2023-03-27T09:45:00.250Z,4.53
2023-03-27T09:50:24.571Z,4.57
2023-03-27T09:55:32.276Z,4.40
2023-03-27T10:00:36.599Z,4.50
2023-03-27T10:05:42.046Z,4.41
2023-03-27T10:10:45.756Z,4.25
2023-03-27T10:15:49.511Z,4.35
2023-03-27T10:20:56.162Z,4.33
2023-03-27T10:26:01.916Z,4.28
2023-03-27T10:31:07.848Z,4.10
2023-03-27T10:36:13.437Z,4.07
2023-03-27T10:41:28.324Z,4.09
2023-03-27T10:46:38.818Z,3.95
2023-03-27T10:51:49.827Z,4.01
2023-03-27T10:57:00.525Z,4.03
2023-03-27T11:02:13.099Z,3.87
2023-03-27T11:07:23.014Z,3.68
2023-03-27T11:12:29.614Z,3.80
2023-03-27T11:17:36.998Z,3.76
2023-03-27T11:22:43.788Z,3.67
2023-03-27T11:27:59.682Z,3.66
2023-03-27T11:33:28.425Z,3.67
2023-03-27T11:38:37.770Z,3.57
2023-03-27T11:43:41.761Z,3.33
2023-03-27T11:48:58.851Z,3.47
2023-03-27T11:54:20.980Z,3.54
2023-03-27T11:59:39.939Z,3.55
2023-03-27T12:04:51.274Z,3.43
2023-03-27T12:10:05.625Z,3.37
2023-03-27T12:15:24.923Z,3.29
2023-03-27T12:21:01.440Z,3.26
2023-03-27T12:26:47.211Z,3.22
2023-03-27T12:32:13.564Z,3.13
2023-03-27T12:37:19.879Z,3.16
2023-03-27T12:42:44.489Z,3.03
2023-03-27T12:48:07.492Z,2.96
2023-03-27T12:53:20.474Z,2.97
2023-03-27T12:58:34.922Z,2.95
2023-03-27T13:04:06.117Z,2.92
2023-03-27T13:09:36.112Z,2.99
2023-03-27T13:15:03.090Z,2.86
2023-03-27T13:20:17.043Z,2.74
2023-03-27T13:25:41.269Z,2.87
2023-03-27T13:30:50.966Z,2.80
2023-03-27T13:36:07.893Z,2.86
2023-03-27T13:41:47.800Z,2.87
2023-03-27T13:46:58.143Z,2.72
2023-03-27T13:52:45.821Z,2.83
2023-03-27T13:57:56.400Z,2.82
2023-03-27T14:03:41.783Z,2.74
2023-03-27T14:08:54.993Z,2.73
2023-03-27T14:14:23.088Z,2.85
2023-03-27T14:20:01.803Z,3.03
2023-03-27T14:25:14.679Z,3.19
2023-03-27T14:30:20.689Z,3.31
2023-03-27T14:35:28.007Z,3.38
2023-03-27T14:40:35.951Z,3.55
2023-03-27T14:45:41.683Z,3.48
2023-03-27T14:50:45.973Z,3.59
2023-03-27T14:55:51.382Z,3.92
2023-03-27T15:00:58.463Z,4.37
2023-03-27T15:06:03.855Z,4.95
2023-03-27T15:11:15.988Z,5.96
2023-03-27T15:16:23.010Z,6.47
2023-03-27T15:21:32.446Z,6.79
2023-03-27T15:26:38.258Z,7.26
2023-03-27T15:31:43.620Z,7.71
2023-03-27T15:36:53.708Z,8.28
2023-03-27T15:42:05.735Z,8.82
2023-03-27T15:47:25.054Z,9.42
2023-03-27T15:52:33.384Z,9.88
2023-03-27T15:57:38.786Z,10.35
2023-03-27T16:02:42.809Z,10.92
2023-03-27T16:07:49.068Z,11.19
2023-03-27T16:12:58.273Z,11.70
2023-03-27T16:18:05.164Z,12.12
2023-03-27T16:23:08.815Z,12.63
2023-03-27T16:28:15.440Z,13.01
2023-03-27T16:33:22.254Z,12.76
2023-03-27T16:38:26.927Z,12.63
2023-03-27T16:43:32.230Z,12.40
2023-03-27T16:48:35.856Z,12.34
2023-03-27T16:53:39.552Z,12.74
2023-03-27T16:58:44.878Z,13.14
2023-03-27T17:03:48.526Z,13.62
2023-03-27T17:08:52.225Z,14.03
2023-03-27T17:13:57.544Z,14.13
2023-03-27T17:19:01.408Z,14.33
2023-03-27T17:24:05.257Z,14.67
2023-03-27T17:29:10.548Z,14.73
2023-03-27T17:34:14.247Z,14.86
2023-03-27T17:39:18.616Z,15.25
2023-03-27T17:44:23.916Z,15.36
2023-03-27T17:49:27.604Z,15.55
2023-03-27T17:54:31.221Z,15.77
2023-03-27T17:59:36.677Z,15.69
2023-03-27T18:04:40.472Z,15.79
2023-03-27T18:09:46.692Z,15.54
2023-03-27T18:14:52.020Z,15.87
2023-03-27T18:19:55.653Z,15.55
2023-03-27T18:24:59.282Z,15.85
2023-03-27T18:30:04.741Z,15.73
2023-03-27T18:35:10.688Z,15.82
2023-03-27T18:40:14.783Z,15.85
2023-03-27T18:45:20.248Z,15.75
2023-03-27T18:50:23.886Z,15.87
2023-03-27T18:55:27.542Z,16.34
2023-03-27T19:00:32.808Z,16.18
2023-03-27T19:05:36.502Z,16.40
2023-03-27T19:10:40.496Z,16.53
2023-03-27T19:15:45.824Z,16.52
2023-03-27T19:20:49.466Z,16.37
2023-03-27T19:25:53.194Z,16.56
2023-03-27T19:31:05.581Z,16.48
2023-03-27T19:36:10.247Z,16.53
2023-03-27T19:41:13.931Z,16.36
2023-03-27T19:46:19.317Z,16.42
2023-03-27T19:51:23.105Z,16.67
2023-03-27T19:56:26.784Z,16.85
2023-03-27T20:01:32.075Z,16.93
2023-03-27T20:06:35.764Z,16.88
2023-03-27T20:11:39.407Z,17.05
2023-03-27T20:16:45.788Z,16.94
2023-03-27T20:21:49.463Z,17.39
2023-03-27T20:26:53.921Z,17.42
2023-03-27T20:31:59.367Z,17.50
2023-03-27T20:37:03.037Z,17.53
2023-03-27T20:42:06.738Z,17.81
2023-03-27T20:47:12.137Z,17.70
2023-03-27T20:52:17.374Z,17.50
2023-03-27T20:57:21.137Z,17.44
2023-03-27T21:02:26.624Z,17.59
2023-03-27T21:07:31.331Z,17.70
2023-03-27T21:12:34.981Z,17.70
2023-03-27T21:17:40.312Z,17.75
2023-03-27T21:22:44.066Z,17.70
2023-03-27T21:27:47.779Z,17.29
2023-03-27T21:32:53.119Z,17.56
2023-03-27T21:37:56.811Z,17.32
2023-03-27T21:43:00.414Z,16.86
2023-03-27T21:48:05.995Z,16.81
2023-03-27T21:53:09.821Z,16.86
2023-03-27T21:58:13.468Z,16.70
2023-03-27T22:03:19.518Z,16.72
2023-03-27T22:08:23.405Z,16.57
2023-03-27T22:13:27.228Z,16.71
2023-03-27T22:18:34.202Z,16.74
2023-03-27T22:23:37.836Z,16.70
2023-03-27T22:28:41.469Z,16.84
2023-03-27T22:33:46.853Z,16.56
2023-03-27T22:38:50.579Z,16.69
2023-03-27T22:43:54.417Z,16.55
2023-03-27T22:48:59.916Z,16.14
2023-03-27T22:54:03.669Z,16.11
2023-03-27T22:59:07.287Z,16.04
2023-03-27T23:04:12.579Z,15.73
2023-03-27T23:09:16.420Z,15.99
2023-03-27T23:14:20.175Z,16.14
2023-03-27T23:19:25.442Z,15.74
2023-03-27T23:24:29.070Z,15.26
2023-03-27T23:29:33.151Z,15.40
2023-03-27T23:34:38.425Z,15.41
2023-03-27T23:39:42.064Z,15.50
2023-03-27T23:44:45.758Z,15.42
2023-03-27T23:49:51.048Z,15.52
2023-03-27T23:54:54.710Z,15.60
2023-03-27T23:59:58.375Z,15.58
